Pagina principale
METAR-TAF:

METAR-TAF

Aeroporti :

Aeroporto di Windhoek-Eros

Windhoek, Namibia

latitudine: 22-36-44S, longitudine: 017-04-50E, altezza: 1699 m

Osservazione

Il bollettino è stato emesso 1 ora e 2 minuti fa, alle 05:00 UTC
Vento calmo
Temperature 6°C
Umidità 36%
Pressione 1025 hPa
Visibilità 10 km o più
nessuna nube inferiore a 1500 m e nessun cumulonembo

METAR: FYWE 260500Z 00000KT CAVOK 06/M08 Q1025

Ora: 07:02 (06:02 UTC)

Previsione

Il bollettino è stato emesso 1 ora e 2 minuti fa, alle 05:00 UTC
Previsione valida dal 26 alle 06 UTC al 26 alle 15 UTC
Vento kt da nord
Visibilità 10 km o più
nessuna nube inferiore a 1500 m e nessun cumulonembo
Evoluzione graduale
dal 26 alle 09 UTC al 26 alle 11 UTC
Vento 3 kt da nord/nord-est

TAF: FYWE 260500Z 2606/2615 00000KT CAVOK BECMG 2609/2611 03003KT

Osservazioni e previsioni meteorologiche di più di 4000 aeroporti (messaggi METAR e TAF).

Le stazioni disponibili sono rappresentate dai dischi gialli e rossi sulla carta.

Puntare il mouse per vedere il nome della stazione.

Clicca sopra per visualizzare le osservazioni e previsioni meteorologiche.

Per cambiare la mappa : fare clic sui pulsanti verdi con una croce nera per ingrandire, il pulsante verde con un trattino per diminuire, o sulla freccia verde per le mappe adiacenti.


METAR-TAF: